sensor_id;sensor_type;location;lat;lon;timestamp;pressure;altitude;pressure_sealevel;temperature;humidity
22651;BME280;11492;42.646;23.400;2022-12-18T00:01:23;95770.16;;;8.36;79.39
22651;BME280;11492;42.646;23.400;2022-12-18T00:03:50;95771.78;;;8.37;79.68
22651;BME280;11492;42.646;23.400;2022-12-18T00:06:16;95772.81;;;8.44;79.74
22651;BME280;11492;42.646;23.400;2022-12-18T00:08:43;95773.75;;;8.43;79.18
22651;BME280;11492;42.646;23.400;2022-12-18T00:11:11;95773.16;;;8.31;78.96
22651;BME280;11492;42.646;23.400;2022-12-18T00:13:37;95773.47;;;8.28;78.03
22651;BME280;11492;42.646;23.400;2022-12-18T00:16:05;95793.81;;;7.95;77.55
22651;BME280;11492;42.646;23.400;2022-12-18T00:18:31;95791.66;;;7.91;78.06
22651;BME280;11492;42.646;23.400;2022-12-18T00:21:02;95797.88;;;7.98;78.35
22651;BME280;11492;42.646;23.400;2022-12-18T00:23:29;95805.03;;;8.04;79.11
22651;BME280;11492;42.646;23.400;2022-12-18T00:25:58;95805.63;;;7.89;78.34
22651;BME280;11492;42.646;23.400;2022-12-18T00:28:24;95800.91;;;7.84;78.55
22651;BME280;11492;42.646;23.400;2022-12-18T00:30:49;95805.25;;;7.84;79.87
22651;BME280;11492;42.646;23.400;2022-12-18T00:33:17;95812.19;;;7.74;79.11
22651;BME280;11492;42.646;23.400;2022-12-18T00:35:42;95812.19;;;7.74;78.67
22651;BME280;11492;42.646;23.400;2022-12-18T00:38:08;95804.88;;;7.79;79.34
22651;BME280;11492;42.646;23.400;2022-12-18T00:40:33;95822.47;;;7.74;79.06
22651;BME280;11492;42.646;23.400;2022-12-18T00:42:58;95813.00;;;7.74;78.99
22651;BME280;11492;42.646;23.400;2022-12-18T00:45:26;95814.22;;;7.70;78.79
22651;BME280;11492;42.646;23.400;2022-12-18T00:47:52;95822.00;;;7.61;78.44
22651;BME280;11492;42.646;23.400;2022-12-18T00:50:18;95824.44;;;7.53;78.65
22651;BME280;11492;42.646;23.400;2022-12-18T00:52:44;95826.06;;;7.54;79.11
22651;BME280;11492;42.646;23.400;2022-12-18T00:55:10;95834.50;;;7.38;78.90
22651;BME280;11492;42.646;23.400;2022-12-18T00:57:35;95836.63;;;7.51;78.81
22651;BME280;11492;42.646;23.400;2022-12-18T01:00:01;95829.03;;;7.59;78.46
22651;BME280;11492;42.646;23.400;2022-12-18T01:02:26;95835.28;;;7.57;77.78
22651;BME280;11492;42.646;23.400;2022-12-18T01:04:52;95837.13;;;7.64;77.55
22651;BME280;11492;42.646;23.400;2022-12-18T01:07:17;95839.88;;;7.53;78.68
22651;BME280;11492;42.646;23.400;2022-12-18T01:09:43;95853.53;;;7.45;77.92
22651;BME280;11492;42.646;23.400;2022-12-18T01:12:08;95849.13;;;7.28;77.93
22651;BME280;11492;42.646;23.400;2022-12-18T01:14:33;95843.34;;;7.26;78.01
22651;BME280;11492;42.646;23.400;2022-12-18T01:16:59;95840.22;;;7.32;78.21
22651;BME280;11492;42.646;23.400;2022-12-18T01:19:24;95849.41;;;7.25;77.79
22651;BME280;11492;42.646;23.400;2022-12-18T01:21:50;95848.06;;;7.21;78.33
22651;BME280;11492;42.646;23.400;2022-12-18T01:24:15;95857.28;;;7.05;77.96
22651;BME280;11492;42.646;23.400;2022-12-18T01:26:41;95849.03;;;7.01;78.51
22651;BME280;11492;42.646;23.400;2022-12-18T01:29:06;95848.63;;;6.96;78.31
22651;BME280;11492;42.646;23.400;2022-12-18T01:31:32;95862.13;;;7.08;78.81
22651;BME280;11492;42.646;23.400;2022-12-18T01:34:01;95867.00;;;6.83;78.33
22651;BME280;11492;42.646;23.400;2022-12-18T01:36:29;95864.84;;;6.88;78.39
22651;BME280;11492;42.646;23.400;2022-12-18T01:38:55;95864.31;;;6.75;78.13
22651;BME280;11492;42.646;23.400;2022-12-18T01:41:25;95866.34;;;6.81;78.95
22651;BME280;11492;42.646;23.400;2022-12-18T01:46:18;95878.66;;;6.68;78.20
22651;BME280;11492;42.646;23.400;2022-12-18T01:48:45;95878.09;;;6.65;78.42
22651;BME280;11492;42.646;23.400;2022-12-18T01:51:12;95875.41;;;6.75;78.70
22651;BME280;11492;42.646;23.400;2022-12-18T01:53:39;95879.16;;;6.71;78.65
22651;BME280;11492;42.646;23.400;2022-12-18T01:56:05;95878.50;;;6.70;78.66
22651;BME280;11492;42.646;23.400;2022-12-18T01:58:52;95893.75;;;6.62;78.98
22651;BME280;11492;42.646;23.400;2022-12-18T02:01:21;95882.81;;;6.69;79.10
22651;BME280;11492;42.646;23.400;2022-12-18T02:03:47;95885.13;;;6.63;78.44
22651;BME280;11492;42.646;23.400;2022-12-18T02:06:15;95885.75;;;6.46;79.16
22651;BME280;11492;42.646;23.400;2022-12-18T02:08:58;95892.66;;;6.55;79.19
22651;BME280;11492;42.646;23.400;2022-12-18T02:11:52;95901.53;;;6.42;78.92
22651;BME280;11492;42.646;23.400;2022-12-18T02:17:11;95904.75;;;6.25;79.07
22651;BME280;11492;42.646;23.400;2022-12-18T02:27:50;95907.50;;;6.51;78.92
22651;BME280;11492;42.646;23.400;2022-12-18T02:30:17;95914.13;;;6.54;78.93
22651;BME280;11492;42.646;23.400;2022-12-18T02:32:48;95908.06;;;6.64;78.70
22651;BME280;11492;42.646;23.400;2022-12-18T02:35:17;95924.78;;;6.49;78.35
22651;BME280;11492;42.646;23.400;2022-12-18T02:37:45;95916.41;;;6.57;78.81
22651;BME280;11492;42.646;23.400;2022-12-18T02:40:14;95909.03;;;6.63;78.21
22651;BME280;11492;42.646;23.400;2022-12-18T02:42:41;95923.72;;;6.71;77.94
22651;BME280;11492;42.646;23.400;2022-12-18T02:45:06;95903.75;;;6.65;77.98
22651;BME280;11492;42.646;23.400;2022-12-18T02:47:35;95916.84;;;6.71;77.53
22651;BME280;11492;42.646;23.400;2022-12-18T02:58:59;95925.31;;;6.44;78.56
22651;BME280;11492;42.646;23.400;2022-12-18T03:03:56;95947.09;;;6.58;77.73
22651;BME280;11492;42.646;23.400;2022-12-18T03:06:27;95941.00;;;6.59;77.43
22651;BME280;11492;42.646;23.400;2022-12-18T03:08:58;95949.34;;;6.52;77.38
22651;BME280;11492;42.646;23.400;2022-12-18T03:11:26;95939.63;;;6.46;77.47
22651;BME280;11492;42.646;23.400;2022-12-18T03:14:13;95951.16;;;6.22;77.92
22651;BME280;11492;42.646;23.400;2022-12-18T03:16:43;95950.28;;;6.03;78.68
22651;BME280;11492;42.646;23.400;2022-12-18T03:19:13;95941.09;;;6.00;79.44
22651;BME280;11492;42.646;23.400;2022-12-18T03:21:45;95940.06;;;6.12;78.54
22651;BME280;11492;42.646;23.400;2022-12-18T03:24:11;95958.59;;;6.25;79.32
22651;BME280;11492;42.646;23.400;2022-12-18T03:26:40;95961.03;;;6.36;78.72
22651;BME280;11492;42.646;23.400;2022-12-18T03:29:11;95949.63;;;6.10;78.27
22651;BME280;11492;42.646;23.400;2022-12-18T03:31:40;95959.88;;;6.10;78.46
22651;BME280;11492;42.646;23.400;2022-12-18T03:34:11;95966.22;;;6.06;78.26
22651;BME280;11492;42.646;23.400;2022-12-18T03:36:38;95965.66;;;6.03;78.34
22651;BME280;11492;42.646;23.400;2022-12-18T03:39:04;95972.00;;;5.79;78.24
22651;BME280;11492;42.646;23.400;2022-12-18T03:41:33;95964.63;;;5.85;78.17
22651;BME280;11492;42.646;23.400;2022-12-18T03:44:17;95980.22;;;6.02;78.54
22651;BME280;11492;42.646;23.400;2022-12-18T03:47:09;95974.34;;;6.11;78.29
22651;BME280;11492;42.646;23.400;2022-12-18T03:49:41;95985.78;;;6.07;77.47
22651;BME280;11492;42.646;23.400;2022-12-18T03:54:41;96002.22;;;5.45;78.11
22651;BME280;11492;42.646;23.400;2022-12-18T03:57:28;96006.91;;;5.60;78.61
22651;BME280;11492;42.646;23.400;2022-12-18T03:59:57;96007.47;;;5.63;78.69
22651;BME280;11492;42.646;23.400;2022-12-18T04:02:24;95992.75;;;5.76;78.27
22651;BME280;11492;42.646;23.400;2022-12-18T04:04:52;95991.91;;;5.55;77.74
22651;BME280;11492;42.646;23.400;2022-12-18T04:07:19;95993.53;;;5.56;78.22
22651;BME280;11492;42.646;23.400;2022-12-18T04:09:47;95988.63;;;5.64;77.79
22651;BME280;11492;42.646;23.400;2022-12-18T04:12:13;96001.06;;;5.69;78.03
22651;BME280;11492;42.646;23.400;2022-12-18T04:14:38;95999.06;;;5.72;78.14
22651;BME280;11492;42.646;23.400;2022-12-18T04:17:04;96005.88;;;5.82;77.90
22651;BME280;11492;42.646;23.400;2022-12-18T04:19:29;96012.41;;;5.55;77.95
22651;BME280;11492;42.646;23.400;2022-12-18T04:21:55;96014.66;;;5.69;77.66
22651;BME280;11492;42.646;23.400;2022-12-18T04:24:20;96024.22;;;5.67;77.80
22651;BME280;11492;42.646;23.400;2022-12-18T04:26:46;96024.22;;;5.67;77.86
22651;BME280;11492;42.646;23.400;2022-12-18T04:29:11;96020.81;;;5.77;77.62
22651;BME280;11492;42.646;23.400;2022-12-18T04:31:36;96031.69;;;5.70;76.39
22651;BME280;11492;42.646;23.400;2022-12-18T04:34:02;96030.41;;;5.65;76.39
22651;BME280;11492;42.646;23.400;2022-12-18T04:36:28;96042.19;;;5.56;77.06
22651;BME280;11492;42.646;23.400;2022-12-18T04:38:53;96043.72;;;5.48;76.77
22651;BME280;11492;42.646;23.400;2022-12-18T04:41:19;96044.00;;;5.45;77.04
22651;BME280;11492;42.646;23.400;2022-12-18T04:43:44;96048.13;;;5.57;77.01
22651;BME280;11492;42.646;23.400;2022-12-18T04:46:10;96047.16;;;5.69;76.67
22651;BME280;11492;42.646;23.400;2022-12-18T04:48:35;96045.00;;;5.53;76.61
22651;BME280;11492;42.646;23.400;2022-12-18T04:51:01;96055.56;;;5.71;76.60
22651;BME280;11492;42.646;23.400;2022-12-18T04:53:26;96067.56;;;5.59;75.90
22651;BME280;11492;42.646;23.400;2022-12-18T04:56:05;96057.63;;;5.66;76.20
22651;BME280;11492;42.646;23.400;2022-12-18T04:58:31;96072.03;;;5.77;76.57
22651;BME280;11492;42.646;23.400;2022-12-18T05:00:56;96062.38;;;5.81;76.01
22651;BME280;11492;42.646;23.400;2022-12-18T05:03:22;96074.00;;;5.85;75.14
22651;BME280;11492;42.646;23.400;2022-12-18T05:05:50;96072.66;;;5.70;74.21
22651;BME280;11492;42.646;23.400;2022-12-18T05:08:17;96072.53;;;5.41;73.93
22651;BME280;11492;42.646;23.400;2022-12-18T05:10:42;96073.91;;;5.45;74.35
22651;BME280;11492;42.646;23.400;2022-12-18T05:13:07;96080.47;;;5.58;74.41
22651;BME280;11492;42.646;23.400;2022-12-18T05:15:33;96093.69;;;5.43;73.90
22651;BME280;11492;42.646;23.400;2022-12-18T05:17:59;96097.44;;;5.39;73.62
22651;BME280;11492;42.646;23.400;2022-12-18T05:20:26;96093.91;;;5.50;73.91
22651;BME280;11492;42.646;23.400;2022-12-18T05:22:52;96102.97;;;5.54;73.92
22651;BME280;11492;42.646;23.400;2022-12-18T05:25:18;96104.63;;;5.45;74.00
22651;BME280;11492;42.646;23.400;2022-12-18T05:27:46;96115.78;;;5.54;74.16
22651;BME280;11492;42.646;23.400;2022-12-18T05:30:12;96110.13;;;5.40;73.86
22651;BME280;11492;42.646;23.400;2022-12-18T05:32:38;96110.53;;;5.14;73.73
22651;BME280;11492;42.646;23.400;2022-12-18T05:35:05;96115.78;;;5.13;74.40
22651;BME280;11492;42.646;23.400;2022-12-18T05:37:31;96126.94;;;5.12;74.46
22651;BME280;11492;42.646;23.400;2022-12-18T05:39:56;96129.63;;;5.10;74.50
22651;BME280;11492;42.646;23.400;2022-12-18T05:42:22;96123.91;;;5.07;74.50
22651;BME280;11492;42.646;23.400;2022-12-18T05:44:47;96113.81;;;5.05;74.24
22651;BME280;11492;42.646;23.400;2022-12-18T05:47:13;96119.38;;;5.10;74.15
22651;BME280;11492;42.646;23.400;2022-12-18T05:49:38;96134.13;;;5.28;74.40
22651;BME280;11492;42.646;23.400;2022-12-18T05:52:04;96139.47;;;5.25;73.70
22651;BME280;11492;42.646;23.400;2022-12-18T05:54:29;96133.16;;;5.40;73.62
22651;BME280;11492;42.646;23.400;2022-12-18T05:56:54;96135.16;;;5.26;73.31
22651;BME280;11492;42.646;23.400;2022-12-18T05:59:20;96139.13;;;5.30;73.28
22651;BME280;11492;42.646;23.400;2022-12-18T06:01:45;96145.47;;;5.46;72.86
22651;BME280;11492;42.646;23.400;2022-12-18T06:04:11;96151.28;;;5.48;72.56
22651;BME280;11492;42.646;23.400;2022-12-18T06:06:37;96152.53;;;5.53;72.64
22651;BME280;11492;42.646;23.400;2022-12-18T06:09:03;96137.38;;;5.30;72.39
22651;BME280;11492;42.646;23.400;2022-12-18T06:11:34;96152.50;;;5.12;72.24
22651;BME280;11492;42.646;23.400;2022-12-18T06:14:01;96163.13;;;4.96;72.97
22651;BME280;11492;42.646;23.400;2022-12-18T06:16:27;96161.91;;;5.22;72.83
22651;BME280;11492;42.646;23.400;2022-12-18T06:18:55;96160.06;;;5.24;72.50
22651;BME280;11492;42.646;23.400;2022-12-18T06:21:20;96160.28;;;5.32;72.55
22651;BME280;11492;42.646;23.400;2022-12-18T06:23:46;96168.78;;;5.32;72.52
22651;BME280;11492;42.646;23.400;2022-12-18T06:26:12;96175.53;;;5.22;71.69
22651;BME280;11492;42.646;23.400;2022-12-18T06:28:38;96184.63;;;5.16;72.52
22651;BME280;11492;42.646;23.400;2022-12-18T06:31:04;96183.13;;;5.24;72.54
22651;BME280;11492;42.646;23.400;2022-12-18T06:33:29;96193.34;;;5.24;72.57
22651;BME280;11492;42.646;23.400;2022-12-18T06:36:03;96184.72;;;5.36;72.69
22651;BME280;11492;42.646;23.400;2022-12-18T06:38:29;96191.44;;;5.47;72.23
22651;BME280;11492;42.646;23.400;2022-12-18T06:40:54;96173.81;;;5.23;71.82
22651;BME280;11492;42.646;23.400;2022-12-18T06:43:19;96202.03;;;5.32;72.26
22651;BME280;11492;42.646;23.400;2022-12-18T06:45:45;96202.50;;;5.37;72.07
22651;BME280;11492;42.646;23.400;2022-12-18T06:48:14;96208.72;;;5.13;72.12
22651;BME280;11492;42.646;23.400;2022-12-18T06:50:42;96202.88;;;5.22;72.19
22651;BME280;11492;42.646;23.400;2022-12-18T06:53:08;96207.31;;;5.20;72.46
22651;BME280;11492;42.646;23.400;2022-12-18T06:55:33;96213.47;;;5.28;72.01
22651;BME280;11492;42.646;23.400;2022-12-18T06:57:58;96209.88;;;5.20;71.35
22651;BME280;11492;42.646;23.400;2022-12-18T07:00:24;96227.31;;;5.04;71.58
22651;BME280;11492;42.646;23.400;2022-12-18T07:02:49;96211.84;;;4.95;72.43
22651;BME280;11492;42.646;23.400;2022-12-18T07:05:15;96214.06;;;5.10;72.04
22651;BME280;11492;42.646;23.400;2022-12-18T07:07:40;96213.94;;;5.12;72.29
22651;BME280;11492;42.646;23.400;2022-12-18T07:10:05;96225.34;;;5.19;71.75
22651;BME280;11492;42.646;23.400;2022-12-18T07:12:31;96215.56;;;5.23;71.58
22651;BME280;11492;42.646;23.400;2022-12-18T07:14:56;96224.50;;;5.40;70.97
22651;BME280;11492;42.646;23.400;2022-12-18T07:17:22;96226.59;;;5.35;70.82
22651;BME280;11492;42.646;23.400;2022-12-18T07:19:47;96223.00;;;5.26;70.43
22651;BME280;11492;42.646;23.400;2022-12-18T07:22:12;96225.91;;;5.22;70.14
22651;BME280;11492;42.646;23.400;2022-12-18T07:24:38;96232.19;;;5.40;70.42
22651;BME280;11492;42.646;23.400;2022-12-18T07:27:03;96230.13;;;5.23;70.26
22651;BME280;11492;42.646;23.400;2022-12-18T07:29:29;96228.84;;;5.28;70.43
22651;BME280;11492;42.646;23.400;2022-12-18T07:31:54;96236.50;;;5.39;70.30
22651;BME280;11492;42.646;23.400;2022-12-18T07:34:20;96234.41;;;5.44;70.23
22651;BME280;11492;42.646;23.400;2022-12-18T07:36:45;96252.19;;;5.56;70.68
22651;BME280;11492;42.646;23.400;2022-12-18T07:39:11;96248.69;;;5.57;70.00
22651;BME280;11492;42.646;23.400;2022-12-18T07:41:36;96238.72;;;5.44;69.51
22651;BME280;11492;42.646;23.400;2022-12-18T07:44:02;96250.31;;;5.58;70.10
22651;BME280;11492;42.646;23.400;2022-12-18T07:46:27;96249.59;;;5.67;70.00
22651;BME280;11492;42.646;23.400;2022-12-18T07:48:52;96249.25;;;5.82;70.63
22651;BME280;11492;42.646;23.400;2022-12-18T07:51:18;96248.88;;;5.97;69.96
22651;BME280;11492;42.646;23.400;2022-12-18T07:53:44;96247.69;;;6.01;69.08
22651;BME280;11492;42.646;23.400;2022-12-18T07:56:11;96258.22;;;6.19;68.04
22651;BME280;11492;42.646;23.400;2022-12-18T07:58:37;96255.53;;;6.20;67.43
22651;BME280;11492;42.646;23.400;2022-12-18T08:01:09;96263.75;;;6.34;66.96
22651;BME280;11492;42.646;23.400;2022-12-18T08:03:36;96269.97;;;6.32;67.29
22651;BME280;11492;42.646;23.400;2022-12-18T08:06:03;96273.34;;;6.32;67.28
22651;BME280;11492;42.646;23.400;2022-12-18T08:08:29;96271.38;;;6.25;67.22
22651;BME280;11492;42.646;23.400;2022-12-18T08:10:55;96289.56;;;6.53;66.57
22651;BME280;11492;42.646;23.400;2022-12-18T08:13:21;96290.22;;;6.35;66.15
22651;BME280;11492;42.646;23.400;2022-12-18T08:15:58;96294.22;;;6.28;67.40
22651;BME280;11492;42.646;23.400;2022-12-18T08:18:24;96296.00;;;6.17;67.35
22651;BME280;11492;42.646;23.400;2022-12-18T08:20:50;96305.22;;;6.08;68.67
22651;BME280;11492;42.646;23.400;2022-12-18T08:23:15;96291.75;;;5.96;67.87
22651;BME280;11492;42.646;23.400;2022-12-18T08:25:41;96302.22;;;5.93;67.93
22651;BME280;11492;42.646;23.400;2022-12-18T08:28:06;96311.66;;;5.92;68.34
22651;BME280;11492;42.646;23.400;2022-12-18T08:30:31;96307.56;;;5.90;68.64
22651;BME280;11492;42.646;23.400;2022-12-18T08:32:57;96310.59;;;5.95;68.16
22651;BME280;11492;42.646;23.400;2022-12-18T08:35:23;96307.03;;;5.75;67.89
22651;BME280;11492;42.646;23.400;2022-12-18T08:37:48;96315.50;;;5.65;68.12
22651;BME280;11492;42.646;23.400;2022-12-18T08:40:14;96309.00;;;5.61;67.69
22651;BME280;11492;42.646;23.400;2022-12-18T08:42:39;96324.22;;;5.52;67.66
22651;BME280;11492;42.646;23.400;2022-12-18T08:45:23;96320.63;;;5.33;68.63
22651;BME280;11492;42.646;23.400;2022-12-18T08:47:49;96312.50;;;5.28;68.56
22651;BME280;11492;42.646;23.400;2022-12-18T08:50:15;96327.72;;;5.40;69.28
22651;BME280;11492;42.646;23.400;2022-12-18T08:52:40;96319.38;;;5.38;68.66
22651;BME280;11492;42.646;23.400;2022-12-18T08:55:06;96313.66;;;5.24;68.74
22651;BME280;11492;42.646;23.400;2022-12-18T08:57:32;96320.72;;;5.21;69.14
22651;BME280;11492;42.646;23.400;2022-12-18T08:59:57;96323.88;;;5.13;69.22
22651;BME280;11492;42.646;23.400;2022-12-18T09:02:23;96319.44;;;5.15;69.10
22651;BME280;11492;42.646;23.400;2022-12-18T09:04:48;96315.38;;;5.13;68.96
22651;BME280;11492;42.646;23.400;2022-12-18T09:07:14;96327.59;;;5.31;68.68
22651;BME280;11492;42.646;23.400;2022-12-18T09:09:39;96323.09;;;5.34;67.85
22651;BME280;11492;42.646;23.400;2022-12-18T09:12:05;96314.81;;;5.42;67.38
22651;BME280;11492;42.646;23.400;2022-12-18T09:14:30;96325.03;;;5.42;67.54
22651;BME280;11492;42.646;23.400;2022-12-18T09:16:55;96311.69;;;5.49;67.70
22651;BME280;11492;42.646;23.400;2022-12-18T09:19:21;96322.59;;;5.29;66.49
22651;BME280;11492;42.646;23.400;2022-12-18T09:21:46;96314.13;;;5.29;66.92
22651;BME280;11492;42.646;23.400;2022-12-18T09:24:13;96318.78;;;5.35;66.93
22651;BME280;11492;42.646;23.400;2022-12-18T09:26:39;96321.81;;;5.40;67.15
22651;BME280;11492;42.646;23.400;2022-12-18T09:29:04;96314.69;;;5.32;66.46
22651;BME280;11492;42.646;23.400;2022-12-18T09:31:32;96322.94;;;5.25;66.59
22651;BME280;11492;42.646;23.400;2022-12-18T09:33:58;96316.22;;;5.24;66.88
22651;BME280;11492;42.646;23.400;2022-12-18T09:36:23;96316.44;;;5.43;66.64
22651;BME280;11492;42.646;23.400;2022-12-18T09:38:49;96311.78;;;5.58;66.34
22651;BME280;11492;42.646;23.400;2022-12-18T09:41:47;96323.88;;;5.56;65.93
22651;BME280;11492;42.646;23.400;2022-12-18T09:44:22;96326.72;;;5.75;66.14
22651;BME280;11492;42.646;23.400;2022-12-18T09:47:14;96320.19;;;5.71;66.02
22651;BME280;11492;42.646;23.400;2022-12-18T09:49:46;96322.28;;;5.77;65.90
22651;BME280;11492;42.646;23.400;2022-12-18T09:52:19;96317.97;;;5.77;64.29
22651;BME280;11492;42.646;23.400;2022-12-18T09:57:24;96321.81;;;5.83;64.36
22651;BME280;11492;42.646;23.400;2022-12-18T09:59:56;96319.09;;;5.95;64.90
22651;BME280;11492;42.646;23.400;2022-12-18T10:02:25;96318.88;;;5.87;63.84
22651;BME280;11492;42.646;23.400;2022-12-18T10:05:14;96322.00;;;6.01;64.00
22651;BME280;11492;42.646;23.400;2022-12-18T10:08:28;96319.97;;;5.85;63.80
22651;BME280;11492;42.646;23.400;2022-12-18T10:11:11;96316.00;;;5.81;63.70
22651;BME280;11492;42.646;23.400;2022-12-18T10:13:46;96322.06;;;5.80;64.56
22651;BME280;11492;42.646;23.400;2022-12-18T10:22:14;96327.00;;;6.03;63.65
22651;BME280;11492;42.646;23.400;2022-12-18T10:25:10;96322.50;;;5.96;64.96
22651;BME280;11492;42.646;23.400;2022-12-18T10:27:39;96329.44;;;6.04;63.88
22651;BME280;11492;42.646;23.400;2022-12-18T10:30:14;96322.94;;;6.11;62.86
22651;BME280;11492;42.646;23.400;2022-12-18T10:32:40;96320.63;;;5.97;62.65
22651;BME280;11492;42.646;23.400;2022-12-18T10:35:15;96323.78;;;5.90;62.78
22651;BME280;11492;42.646;23.400;2022-12-18T10:38:00;96328.50;;;6.05;63.57
22651;BME280;11492;42.646;23.400;2022-12-18T10:40:26;96317.81;;;6.11;62.83
22651;BME280;11492;42.646;23.400;2022-12-18T10:43:11;96317.88;;;6.21;63.34
22651;BME280;11492;42.646;23.400;2022-12-18T10:45:37;96316.66;;;6.35;62.48
22651;BME280;11492;42.646;23.400;2022-12-18T10:48:03;96313.25;;;6.46;62.83
22651;BME280;11492;42.646;23.400;2022-12-18T10:50:31;96309.78;;;6.67;61.39
22651;BME280;11492;42.646;23.400;2022-12-18T10:52:59;96299.59;;;6.76;61.35
22651;BME280;11492;42.646;23.400;2022-12-18T10:55:34;96313.00;;;6.79;61.01
22651;BME280;11492;42.646;23.400;2022-12-18T10:58:26;96319.25;;;6.24;61.82
22651;BME280;11492;42.646;23.400;2022-12-18T11:01:09;96304.84;;;6.13;62.98
22651;BME280;11492;42.646;23.400;2022-12-18T11:03:37;96302.84;;;6.27;63.24
22651;BME280;11492;42.646;23.400;2022-12-18T11:08:32;96314.94;;;6.25;63.09
22651;BME280;11492;42.646;23.400;2022-12-18T11:10:57;96308.88;;;6.37;63.70
22651;BME280;11492;42.646;23.400;2022-12-18T11:13:25;96309.06;;;6.45;62.66
22651;BME280;11492;42.646;23.400;2022-12-18T11:15:51;96308.78;;;6.58;62.90
22651;BME280;11492;42.646;23.400;2022-12-18T11:20:57;96308.16;;;6.66;62.33
22651;BME280;11492;42.646;23.400;2022-12-18T11:23:25;96305.00;;;6.62;62.03
22651;BME280;11492;42.646;23.400;2022-12-18T11:25:53;96328.22;;;6.61;61.17
22651;BME280;11492;42.646;23.400;2022-12-18T11:31:25;96313.25;;;6.46;60.71
22651;BME280;11492;42.646;23.400;2022-12-18T11:36:47;96313.19;;;6.25;60.05
22651;BME280;11492;42.646;23.400;2022-12-18T11:39:33;96317.03;;;6.31;60.49
22651;BME280;11492;42.646;23.400;2022-12-18T11:42:18;96326.06;;;6.46;61.02
22651;BME280;11492;42.646;23.400;2022-12-18T11:44:52;96320.50;;;6.41;60.76
22651;BME280;11492;42.646;23.400;2022-12-18T11:47:37;96325.38;;;6.44;61.00
22651;BME280;11492;42.646;23.400;2022-12-18T11:50:14;96328.19;;;6.41;60.85
22651;BME280;11492;42.646;23.400;2022-12-18T11:52:41;96332.47;;;6.51;61.44
22651;BME280;11492;42.646;23.400;2022-12-18T11:55:31;96320.97;;;6.35;59.87
22651;BME280;11492;42.646;23.400;2022-12-18T12:00:26;96326.91;;;6.35;60.85
22651;BME280;11492;42.646;23.400;2022-12-18T12:16:24;96329.78;;;6.52;60.18
22651;BME280;11492;42.646;23.400;2022-12-18T12:24:41;96333.44;;;6.39;59.74
22651;BME280;11492;42.646;23.400;2022-12-18T12:30:14;96325.88;;;6.38;60.87
22651;BME280;11492;42.646;23.400;2022-12-18T12:38:43;96344.94;;;6.55;60.86
22651;BME280;11492;42.646;23.400;2022-12-18T12:41:13;96330.44;;;6.65;61.14
22651;BME280;11492;42.646;23.400;2022-12-18T12:44:16;96327.81;;;6.76;61.63
22651;BME280;11492;42.646;23.400;2022-12-18T12:46:44;96333.03;;;6.54;60.11
22651;BME280;11492;42.646;23.400;2022-12-18T12:49:19;96332.91;;;6.25;60.68
22651;BME280;11492;42.646;23.400;2022-12-18T12:51:57;96322.31;;;6.19;61.09
22651;BME280;11492;42.646;23.400;2022-12-18T12:54:26;96336.00;;;6.39;61.05
22651;BME280;11492;42.646;23.400;2022-12-18T12:57:01;96333.13;;;6.33;60.92
22651;BME280;11492;42.646;23.400;2022-12-18T13:02:48;96347.09;;;6.29;61.33
22651;BME280;11492;42.646;23.400;2022-12-18T13:05:29;96348.28;;;6.25;61.05
22651;BME280;11492;42.646;23.400;2022-12-18T13:08:07;96363.63;;;6.36;61.33
22651;BME280;11492;42.646;23.400;2022-12-18T13:10:39;96366.34;;;6.23;61.38
22651;BME280;11492;42.646;23.400;2022-12-18T13:13:15;96361.19;;;6.34;62.49
22651;BME280;11492;42.646;23.400;2022-12-18T13:15:47;96366.88;;;6.48;62.99
22651;BME280;11492;42.646;23.400;2022-12-18T13:18:23;96355.44;;;6.52;63.20
22651;BME280;11492;42.646;23.400;2022-12-18T13:25:56;96368.22;;;6.63;61.27
22651;BME280;11492;42.646;23.400;2022-12-18T13:31:01;96376.47;;;6.25;61.53
22651;BME280;11492;42.646;23.400;2022-12-18T13:33:44;96373.44;;;6.31;61.99
22651;BME280;11492;42.646;23.400;2022-12-18T13:38:47;96383.22;;;6.26;61.17
22651;BME280;11492;42.646;23.400;2022-12-18T13:41:33;96381.97;;;6.31;62.20
22651;BME280;11492;42.646;23.400;2022-12-18T13:46:46;96372.44;;;6.12;61.25
22651;BME280;11492;42.646;23.400;2022-12-18T13:51:49;96398.88;;;6.12;62.33
22651;BME280;11492;42.646;23.400;2022-12-18T13:56:45;96408.19;;;6.24;61.86
22651;BME280;11492;42.646;23.400;2022-12-18T13:59:18;96399.56;;;6.25;61.95
22651;BME280;11492;42.646;23.400;2022-12-18T14:01:56;96404.38;;;6.60;66.83
22651;BME280;11492;42.646;23.400;2022-12-18T14:04:25;96402.25;;;6.65;62.30
22651;BME280;11492;42.646;23.400;2022-12-18T14:07:16;96404.91;;;6.74;64.43
22651;BME280;11492;42.646;23.400;2022-12-18T14:09:43;96407.72;;;7.02;62.60
22651;BME280;11492;42.646;23.400;2022-12-18T14:15:03;96407.41;;;6.96;60.76
22651;BME280;11492;42.646;23.400;2022-12-18T14:17:31;96403.97;;;6.75;60.64
22651;BME280;11492;42.646;23.400;2022-12-18T14:19:57;96392.25;;;6.51;60.81
22651;BME280;11492;42.646;23.400;2022-12-18T14:22:24;96414.16;;;6.66;61.07
22651;BME280;11492;42.646;23.400;2022-12-18T14:25:14;96417.16;;;6.71;61.05
22651;BME280;11492;42.646;23.400;2022-12-18T14:27:47;96414.66;;;6.49;60.74
22651;BME280;11492;42.646;23.400;2022-12-18T14:30:35;96417.69;;;6.54;60.34
22651;BME280;11492;42.646;23.400;2022-12-18T14:33:05;96419.66;;;6.51;61.11
22651;BME280;11492;42.646;23.400;2022-12-18T14:35:32;96427.38;;;6.40;59.97
22651;BME280;11492;42.646;23.400;2022-12-18T14:38:18;96422.97;;;6.42;60.86
22651;BME280;11492;42.646;23.400;2022-12-18T14:40:44;96426.47;;;6.30;60.28
22651;BME280;11492;42.646;23.400;2022-12-18T14:43:10;96414.25;;;6.34;60.43
22651;BME280;11492;42.646;23.400;2022-12-18T14:48:07;96419.13;;;6.47;60.50
22651;BME280;11492;42.646;23.400;2022-12-18T14:50:33;96429.38;;;6.47;60.59
22651;BME280;11492;42.646;23.400;2022-12-18T14:52:59;96427.19;;;6.32;60.64
22651;BME280;11492;42.646;23.400;2022-12-18T14:55:24;96425.91;;;6.27;60.45